sensor_id;sensor_type;location;lat;lon;timestamp;P1;durP1;ratioP1;P2;durP2;ratioP2
3217;SDS011;1621;49.702;8.618;2024-02-04T00:01:27;4.30;;;2.50;;
3217;SDS011;1621;49.702;8.618;2024-02-04T00:03:53;4.60;;;2.60;;
3217;SDS011;1621;49.702;8.618;2024-02-04T00:06:19;4.10;;;2.63;;
3217;SDS011;1621;49.702;8.618;2024-02-04T00:08:46;4.60;;;2.97;;
3217;SDS011;1621;49.702;8.618;2024-02-04T00:11:12;4.57;;;2.60;;
3217;SDS011;1621;49.702;8.618;2024-02-04T00:13:38;3.83;;;2.43;;
3217;SDS011;1621;49.702;8.618;2024-02-04T00:16:05;5.90;;;3.23;;
3217;SDS011;1621;49.702;8.618;2024-02-04T00:18:32;4.47;;;2.93;;
3217;SDS011;1621;49.702;8.618;2024-02-04T00:20:59;5.23;;;2.93;;
3217;SDS011;1621;49.702;8.618;2024-02-04T00:23:25;5.20;;;2.97;;
3217;SDS011;1621;49.702;8.618;2024-02-04T00:25:51;4.80;;;2.97;;
3217;SDS011;1621;49.702;8.618;2024-02-04T00:28:17;4.30;;;2.77;;
3217;SDS011;1621;49.702;8.618;2024-02-04T00:30:45;4.37;;;2.53;;
3217;SDS011;1621;49.702;8.618;2024-02-04T00:33:11;3.97;;;2.53;;
3217;SDS011;1621;49.702;8.618;2024-02-04T00:35:39;4.20;;;2.40;;
3217;SDS011;1621;49.702;8.618;2024-02-04T00:38:05;4.33;;;2.70;;
3217;SDS011;1621;49.702;8.618;2024-02-04T00:40:31;7.27;;;2.77;;
3217;SDS011;1621;49.702;8.618;2024-02-04T00:42:58;5.73;;;2.80;;
3217;SDS011;1621;49.702;8.618;2024-02-04T00:45:24;5.70;;;2.67;;
3217;SDS011;1621;49.702;8.618;2024-02-04T00:47:50;3.57;;;2.60;;
3217;SDS011;1621;49.702;8.618;2024-02-04T00:50:16;4.03;;;2.60;;
3217;SDS011;1621;49.702;8.618;2024-02-04T00:52:44;3.90;;;2.40;;
3217;SDS011;1621;49.702;8.618;2024-02-04T00:55:10;5.57;;;2.67;;
3217;SDS011;1621;49.702;8.618;2024-02-04T00:57:36;4.20;;;3.00;;
3217;SDS011;1621;49.702;8.618;2024-02-04T01:00:03;3.60;;;2.37;;
3217;SDS011;1621;49.702;8.618;2024-02-04T01:02:29;3.70;;;2.47;;
3217;SDS011;1621;49.702;8.618;2024-02-04T01:04:56;3.87;;;2.57;;
3217;SDS011;1621;49.702;8.618;2024-02-04T01:07:22;4.57;;;1.87;;
3217;SDS011;1621;49.702;8.618;2024-02-04T01:09:49;4.10;;;2.83;;
3217;SDS011;1621;49.702;8.618;2024-02-04T01:12:16;4.13;;;2.53;;
3217;SDS011;1621;49.702;8.618;2024-02-04T01:14:42;3.87;;;2.47;;
3217;SDS011;1621;49.702;8.618;2024-02-04T01:17:08;3.70;;;2.13;;
3217;SDS011;1621;49.702;8.618;2024-02-04T01:19:35;3.20;;;2.10;;
3217;SDS011;1621;49.702;8.618;2024-02-04T01:22:01;3.60;;;2.30;;
3217;SDS011;1621;49.702;8.618;2024-02-04T01:24:27;3.87;;;2.40;;
3217;SDS011;1621;49.702;8.618;2024-02-04T01:26:55;3.50;;;2.30;;
3217;SDS011;1621;49.702;8.618;2024-02-04T01:29:21;7.10;;;2.80;;
3217;SDS011;1621;49.702;8.618;2024-02-04T01:31:47;5.00;;;2.40;;
3217;SDS011;1621;49.702;8.618;2024-02-04T01:34:14;3.40;;;2.20;;
3217;SDS011;1621;49.702;8.618;2024-02-04T01:36:40;3.73;;;2.30;;
3217;SDS011;1621;49.702;8.618;2024-02-04T01:39:06;3.83;;;2.30;;
3217;SDS011;1621;49.702;8.618;2024-02-04T01:41:33;3.73;;;2.30;;
3217;SDS011;1621;49.702;8.618;2024-02-04T01:44:00;3.50;;;1.70;;
3217;SDS011;1621;49.702;8.618;2024-02-04T01:46:27;3.70;;;2.27;;
3217;SDS011;1621;49.702;8.618;2024-02-04T01:48:53;3.73;;;2.23;;
3217;SDS011;1621;49.702;8.618;2024-02-04T01:51:20;4.20;;;2.43;;
3217;SDS011;1621;49.702;8.618;2024-02-04T01:53:46;3.43;;;2.00;;
3217;SDS011;1621;49.702;8.618;2024-02-04T01:56:13;3.70;;;2.20;;
3217;SDS011;1621;49.702;8.618;2024-02-04T01:58:39;3.20;;;1.80;;
3217;SDS011;1621;49.702;8.618;2024-02-04T02:01:07;4.03;;;2.30;;
3217;SDS011;1621;49.702;8.618;2024-02-04T02:03:34;3.03;;;1.80;;
3217;SDS011;1621;49.702;8.618;2024-02-04T02:06:00;3.47;;;1.97;;
3217;SDS011;1621;49.702;8.618;2024-02-04T02:08:26;4.03;;;2.13;;
3217;SDS011;1621;49.702;8.618;2024-02-04T02:10:55;3.40;;;2.10;;
3217;SDS011;1621;49.702;8.618;2024-02-04T02:13:24;3.60;;;1.70;;
3217;SDS011;1621;49.702;8.618;2024-02-04T02:15:52;5.10;;;1.93;;
3217;SDS011;1621;49.702;8.618;2024-02-04T02:18:23;5.13;;;2.03;;
3217;SDS011;1621;49.702;8.618;2024-02-04T02:20:55;3.40;;;2.07;;
3217;SDS011;1621;49.702;8.618;2024-02-04T02:23:30;3.23;;;1.70;;
3217;SDS011;1621;49.702;8.618;2024-02-04T02:25:57;3.03;;;1.97;;
3217;SDS011;1621;49.702;8.618;2024-02-04T02:28:24;4.03;;;2.03;;
3217;SDS011;1621;49.702;8.618;2024-02-04T02:30:50;4.30;;;2.40;;
3217;SDS011;1621;49.702;8.618;2024-02-04T02:33:16;3.73;;;2.50;;
3217;SDS011;1621;49.702;8.618;2024-02-04T02:35:43;4.30;;;2.63;;
3217;SDS011;1621;49.702;8.618;2024-02-04T02:38:11;5.10;;;2.40;;
3217;SDS011;1621;49.702;8.618;2024-02-04T02:40:42;3.93;;;2.40;;
3217;SDS011;1621;49.702;8.618;2024-02-04T02:43:11;4.50;;;2.63;;
3217;SDS011;1621;49.702;8.618;2024-02-04T02:45:39;6.87;;;3.40;;
3217;SDS011;1621;49.702;8.618;2024-02-04T02:48:06;4.63;;;2.70;;
3217;SDS011;1621;49.702;8.618;2024-02-04T02:50:33;4.53;;;2.60;;
3217;SDS011;1621;49.702;8.618;2024-02-04T02:53:00;5.07;;;3.10;;
3217;SDS011;1621;49.702;8.618;2024-02-04T02:55:26;5.00;;;2.90;;
3217;SDS011;1621;49.702;8.618;2024-02-04T02:57:52;4.90;;;3.73;;
3217;SDS011;1621;49.702;8.618;2024-02-04T03:00:20;4.90;;;3.50;;
3217;SDS011;1621;49.702;8.618;2024-02-04T03:02:46;4.10;;;2.77;;
3217;SDS011;1621;49.702;8.618;2024-02-04T03:05:13;5.23;;;3.60;;
3217;SDS011;1621;49.702;8.618;2024-02-04T03:07:41;5.10;;;3.53;;
3217;SDS011;1621;49.702;8.618;2024-02-04T03:10:07;5.60;;;3.60;;
3217;SDS011;1621;49.702;8.618;2024-02-04T03:12:34;4.70;;;3.40;;
3217;SDS011;1621;49.702;8.618;2024-02-04T03:15:00;7.33;;;3.33;;
3217;SDS011;1621;49.702;8.618;2024-02-04T03:17:28;5.93;;;3.70;;
3217;SDS011;1621;49.702;8.618;2024-02-04T03:19:54;5.70;;;4.00;;
3217;SDS011;1621;49.702;8.618;2024-02-04T03:22:20;7.70;;;3.97;;
3217;SDS011;1621;49.702;8.618;2024-02-04T03:24:47;5.10;;;3.77;;
3217;SDS011;1621;49.702;8.618;2024-02-04T03:27:13;4.90;;;3.30;;
3217;SDS011;1621;49.702;8.618;2024-02-04T03:29:39;6.10;;;4.43;;
3217;SDS011;1621;49.702;8.618;2024-02-04T03:32:06;5.73;;;3.63;;
3217;SDS011;1621;49.702;8.618;2024-02-04T03:34:33;4.97;;;3.60;;
3217;SDS011;1621;49.702;8.618;2024-02-04T03:37:00;6.43;;;3.20;;
3217;SDS011;1621;49.702;8.618;2024-02-04T03:39:27;4.90;;;3.60;;
3217;SDS011;1621;49.702;8.618;2024-02-04T03:41:53;5.33;;;3.93;;
3217;SDS011;1621;49.702;8.618;2024-02-04T03:44:19;4.87;;;3.50;;
3217;SDS011;1621;49.702;8.618;2024-02-04T03:46:47;5.27;;;3.77;;
3217;SDS011;1621;49.702;8.618;2024-02-04T03:49:13;5.33;;;3.87;;
3217;SDS011;1621;49.702;8.618;2024-02-04T03:51:41;4.80;;;3.40;;
3217;SDS011;1621;49.702;8.618;2024-02-04T03:54:07;6.30;;;3.93;;
3217;SDS011;1621;49.702;8.618;2024-02-04T03:56:34;5.43;;;3.53;;
3217;SDS011;1621;49.702;8.618;2024-02-04T03:59:00;5.70;;;3.83;;
3217;SDS011;1621;49.702;8.618;2024-02-04T04:01:26;4.73;;;3.40;;
3217;SDS011;1621;49.702;8.618;2024-02-04T04:03:53;5.23;;;3.67;;
3217;SDS011;1621;49.702;8.618;2024-02-04T04:06:19;5.07;;;3.90;;
3217;SDS011;1621;49.702;8.618;2024-02-04T04:08:46;5.00;;;3.70;;
3217;SDS011;1621;49.702;8.618;2024-02-04T04:11:13;4.90;;;3.60;;
3217;SDS011;1621;49.702;8.618;2024-02-04T04:13:39;4.50;;;2.87;;
3217;SDS011;1621;49.702;8.618;2024-02-04T04:16:05;5.67;;;4.03;;
3217;SDS011;1621;49.702;8.618;2024-02-04T04:18:32;5.10;;;3.33;;
3217;SDS011;1621;49.702;8.618;2024-02-04T04:20:58;4.13;;;3.07;;
3217;SDS011;1621;49.702;8.618;2024-02-04T04:23:24;4.97;;;3.10;;
3217;SDS011;1621;49.702;8.618;2024-02-04T04:25:52;4.60;;;3.27;;
3217;SDS011;1621;49.702;8.618;2024-02-04T04:28:18;4.67;;;3.40;;
3217;SDS011;1621;49.702;8.618;2024-02-04T04:30:44;4.57;;;3.17;;
3217;SDS011;1621;49.702;8.618;2024-02-04T04:33:11;9.97;;;3.83;;
3217;SDS011;1621;49.702;8.618;2024-02-04T04:35:38;4.40;;;2.90;;
3217;SDS011;1621;49.702;8.618;2024-02-04T04:38:04;4.40;;;3.20;;
3217;SDS011;1621;49.702;8.618;2024-02-04T04:40:30;4.70;;;3.50;;
3217;SDS011;1621;49.702;8.618;2024-02-04T04:42:58;4.87;;;3.00;;
3217;SDS011;1621;49.702;8.618;2024-02-04T04:45:24;5.30;;;3.03;;
3217;SDS011;1621;49.702;8.618;2024-02-04T04:47:51;4.70;;;3.47;;
3217;SDS011;1621;49.702;8.618;2024-02-04T04:50:17;4.40;;;3.10;;
3217;SDS011;1621;49.702;8.618;2024-02-04T04:52:43;4.90;;;3.70;;
3217;SDS011;1621;49.702;8.618;2024-02-04T04:55:09;4.70;;;3.17;;
3217;SDS011;1621;49.702;8.618;2024-02-04T04:57:36;5.00;;;3.57;;
3217;SDS011;1621;49.702;8.618;2024-02-04T05:00:05;6.20;;;4.20;;
3217;SDS011;1621;49.702;8.618;2024-02-04T05:02:34;5.17;;;3.97;;
3217;SDS011;1621;49.702;8.618;2024-02-04T05:05:01;5.90;;;3.40;;
3217;SDS011;1621;49.702;8.618;2024-02-04T05:07:27;5.77;;;3.50;;
3217;SDS011;1621;49.702;8.618;2024-02-04T05:09:53;5.50;;;3.60;;
3217;SDS011;1621;49.702;8.618;2024-02-04T05:12:20;5.13;;;3.50;;
3217;SDS011;1621;49.702;8.618;2024-02-04T05:14:46;5.40;;;3.47;;
3217;SDS011;1621;49.702;8.618;2024-02-04T05:17:13;7.33;;;4.20;;
3217;SDS011;1621;49.702;8.618;2024-02-04T05:19:40;5.53;;;4.27;;
3217;SDS011;1621;49.702;8.618;2024-02-04T05:22:06;5.67;;;3.90;;
3217;SDS011;1621;49.702;8.618;2024-02-04T05:24:33;5.33;;;3.40;;
3217;SDS011;1621;49.702;8.618;2024-02-04T05:26:59;5.30;;;3.50;;
3217;SDS011;1621;49.702;8.618;2024-02-04T05:29:25;4.90;;;3.50;;
3217;SDS011;1621;49.702;8.618;2024-02-04T05:31:52;4.67;;;2.80;;
3217;SDS011;1621;49.702;8.618;2024-02-04T05:34:19;4.73;;;2.80;;
3217;SDS011;1621;49.702;8.618;2024-02-04T05:36:45;4.27;;;2.77;;
3217;SDS011;1621;49.702;8.618;2024-02-04T05:39:12;4.87;;;2.90;;
3217;SDS011;1621;49.702;8.618;2024-02-04T05:41:38;3.63;;;1.90;;
3217;SDS011;1621;49.702;8.618;2024-02-04T05:44:05;2.43;;;1.27;;
3217;SDS011;1621;49.702;8.618;2024-02-04T05:46:31;3.07;;;1.43;;
3217;SDS011;1621;49.702;8.618;2024-02-04T05:48:58;2.47;;;1.20;;
3217;SDS011;1621;49.702;8.618;2024-02-04T05:51:25;2.10;;;0.80;;
3217;SDS011;1621;49.702;8.618;2024-02-04T05:53:52;4.40;;;1.43;;
3217;SDS011;1621;49.702;8.618;2024-02-04T05:56:18;4.27;;;1.30;;
3217;SDS011;1621;49.702;8.618;2024-02-04T05:58:45;4.50;;;1.10;;
3217;SDS011;1621;49.702;8.618;2024-02-04T06:01:11;3.47;;;1.10;;
3217;SDS011;1621;49.702;8.618;2024-02-04T06:03:37;4.03;;;1.00;;
3217;SDS011;1621;49.702;8.618;2024-02-04T06:06:04;2.50;;;1.27;;
3217;SDS011;1621;49.702;8.618;2024-02-04T06:08:32;2.27;;;0.87;;
3217;SDS011;1621;49.702;8.618;2024-02-04T06:10:58;2.53;;;1.13;;
3217;SDS011;1621;49.702;8.618;2024-02-04T06:13:24;2.80;;;1.10;;
3217;SDS011;1621;49.702;8.618;2024-02-04T06:15:50;6.83;;;1.23;;
3217;SDS011;1621;49.702;8.618;2024-02-04T06:18:17;2.73;;;1.20;;
3217;SDS011;1621;49.702;8.618;2024-02-04T06:20:43;2.27;;;0.90;;
3217;SDS011;1621;49.702;8.618;2024-02-04T06:23:09;2.10;;;0.80;;
3217;SDS011;1621;49.702;8.618;2024-02-04T06:25:37;2.40;;;0.93;;
3217;SDS011;1621;49.702;8.618;2024-02-04T06:28:03;2.30;;;0.90;;
3217;SDS011;1621;49.702;8.618;2024-02-04T06:30:29;2.50;;;1.10;;
3217;SDS011;1621;49.702;8.618;2024-02-04T06:32:56;2.87;;;1.00;;
3217;SDS011;1621;49.702;8.618;2024-02-04T06:35:23;2.63;;;0.93;;
3217;SDS011;1621;49.702;8.618;2024-02-04T06:37:50;2.10;;;0.80;;
3217;SDS011;1621;49.702;8.618;2024-02-04T06:40:16;2.97;;;1.23;;
3217;SDS011;1621;49.702;8.618;2024-02-04T06:42:44;2.20;;;0.80;;
3217;SDS011;1621;49.702;8.618;2024-02-04T06:45:10;2.00;;;0.70;;
3217;SDS011;1621;49.702;8.618;2024-02-04T06:47:36;2.00;;;0.70;;
3217;SDS011;1621;49.702;8.618;2024-02-04T06:50:03;2.03;;;0.80;;
3217;SDS011;1621;49.702;8.618;2024-02-04T06:52:30;2.20;;;0.70;;
3217;SDS011;1621;49.702;8.618;2024-02-04T06:54:56;2.20;;;0.70;;
3217;SDS011;1621;49.702;8.618;2024-02-04T06:57:23;2.93;;;0.90;;
3217;SDS011;1621;49.702;8.618;2024-02-04T06:59:50;2.27;;;0.80;;
3217;SDS011;1621;49.702;8.618;2024-02-04T07:02:16;2.40;;;1.00;;
3217;SDS011;1621;49.702;8.618;2024-02-04T07:04:43;2.50;;;0.70;;
3217;SDS011;1621;49.702;8.618;2024-02-04T07:07:09;2.10;;;0.87;;
3217;SDS011;1621;49.702;8.618;2024-02-04T07:09:35;2.40;;;0.90;;
3217;SDS011;1621;49.702;8.618;2024-02-04T07:12:02;2.20;;;0.80;;
3217;SDS011;1621;49.702;8.618;2024-02-04T07:14:28;2.30;;;0.67;;
3217;SDS011;1621;49.702;8.618;2024-02-04T07:16:55;2.20;;;0.80;;
3217;SDS011;1621;49.702;8.618;2024-02-04T07:19:22;3.73;;;0.80;;
3217;SDS011;1621;49.702;8.618;2024-02-04T07:21:48;2.43;;;0.70;;
3217;SDS011;1621;49.702;8.618;2024-02-04T07:24:14;2.50;;;0.70;;
3217;SDS011;1621;49.702;8.618;2024-02-04T07:26:41;2.10;;;0.70;;
3217;SDS011;1621;49.702;8.618;2024-02-04T07:29:07;3.90;;;0.87;;
3217;SDS011;1621;49.702;8.618;2024-02-04T07:31:33;2.10;;;0.80;;
3217;SDS011;1621;49.702;8.618;2024-02-04T07:34:03;2.50;;;0.80;;
3217;SDS011;1621;49.702;8.618;2024-02-04T07:36:30;2.60;;;1.20;;
3217;SDS011;1621;49.702;8.618;2024-02-04T07:38:56;2.10;;;0.80;;
3217;SDS011;1621;49.702;8.618;2024-02-04T07:41:22;2.07;;;0.80;;
3217;SDS011;1621;49.702;8.618;2024-02-04T07:43:49;2.30;;;0.80;;
3217;SDS011;1621;49.702;8.618;2024-02-04T07:46:15;2.30;;;0.90;;
3217;SDS011;1621;49.702;8.618;2024-02-04T07:48:42;2.57;;;1.20;;
3217;SDS011;1621;49.702;8.618;2024-02-04T07:51:09;2.30;;;1.00;;
3217;SDS011;1621;49.702;8.618;2024-02-04T07:53:36;2.90;;;1.27;;
3217;SDS011;1621;49.702;8.618;2024-02-04T07:56:02;2.90;;;1.13;;
3217;SDS011;1621;49.702;8.618;2024-02-04T07:58:31;2.83;;;1.37;;
3217;SDS011;1621;49.702;8.618;2024-02-04T08:00:57;3.30;;;1.30;;
3217;SDS011;1621;49.702;8.618;2024-02-04T08:03:24;2.83;;;1.10;;
3217;SDS011;1621;49.702;8.618;2024-02-04T08:05:50;3.03;;;1.40;;
3217;SDS011;1621;49.702;8.618;2024-02-04T08:08:17;2.80;;;1.37;;
3217;SDS011;1621;49.702;8.618;2024-02-04T08:10:44;3.63;;;1.37;;
3217;SDS011;1621;49.702;8.618;2024-02-04T08:13:10;2.90;;;1.17;;
3217;SDS011;1621;49.702;8.618;2024-02-04T08:15:36;3.53;;;1.60;;
3217;SDS011;1621;49.702;8.618;2024-02-04T08:18:03;3.17;;;1.70;;
3217;SDS011;1621;49.702;8.618;2024-02-04T08:20:28;2.53;;;1.23;;
3217;SDS011;1621;49.702;8.618;2024-02-04T08:22:54;2.70;;;1.30;;
3217;SDS011;1621;49.702;8.618;2024-02-04T08:25:22;2.87;;;1.33;;
3217;SDS011;1621;49.702;8.618;2024-02-04T08:27:48;4.10;;;1.63;;
3217;SDS011;1621;49.702;8.618;2024-02-04T08:30:14;4.03;;;1.70;;
3217;SDS011;1621;49.702;8.618;2024-02-04T08:32:41;2.50;;;1.20;;
3217;SDS011;1621;49.702;8.618;2024-02-04T08:35:08;2.90;;;1.30;;
3217;SDS011;1621;49.702;8.618;2024-02-04T08:37:34;2.50;;;1.30;;
3217;SDS011;1621;49.702;8.618;2024-02-04T08:40:03;3.57;;;1.50;;
3217;SDS011;1621;49.702;8.618;2024-02-04T08:42:30;2.60;;;1.37;;
3217;SDS011;1621;49.702;8.618;2024-02-04T08:44:57;3.90;;;1.40;;
3217;SDS011;1621;49.702;8.618;2024-02-04T08:47:23;3.73;;;1.90;;
3217;SDS011;1621;49.702;8.618;2024-02-04T08:49:49;2.53;;;1.40;;
3217;SDS011;1621;49.702;8.618;2024-02-04T08:52:15;2.80;;;1.40;;
3217;SDS011;1621;49.702;8.618;2024-02-04T08:54:42;2.60;;;1.33;;
3217;SDS011;1621;49.702;8.618;2024-02-04T08:57:08;4.17;;;1.90;;
3217;SDS011;1621;49.702;8.618;2024-02-04T08:59:36;3.90;;;1.90;;
3217;SDS011;1621;49.702;8.618;2024-02-04T09:02:02;3.00;;;1.50;;
3217;SDS011;1621;49.702;8.618;2024-02-04T09:04:28;3.60;;;1.40;;
3217;SDS011;1621;49.702;8.618;2024-02-04T09:06:54;3.10;;;2.00;;
3217;SDS011;1621;49.702;8.618;2024-02-04T09:09:21;6.00;;;3.20;;
3217;SDS011;1621;49.702;8.618;2024-02-04T09:11:47;3.80;;;2.70;;
3217;SDS011;1621;49.702;8.618;2024-02-04T09:14:13;3.50;;;1.67;;
3217;SDS011;1621;49.702;8.618;2024-02-04T09:16:41;2.80;;;0.87;;
3217;SDS011;1621;49.702;8.618;2024-02-04T09:19:07;2.80;;;0.90;;
3217;SDS011;1621;49.702;8.618;2024-02-04T09:21:33;2.00;;;0.73;;
3217;SDS011;1621;49.702;8.618;2024-02-04T09:24:00;2.20;;;0.70;;
3217;SDS011;1621;49.702;8.618;2024-02-04T09:26:26;2.20;;;0.70;;
3217;SDS011;1621;49.702;8.618;2024-02-04T09:28:52;2.30;;;0.87;;
3217;SDS011;1621;49.702;8.618;2024-02-04T09:31:18;2.10;;;0.80;;
3217;SDS011;1621;49.702;8.618;2024-02-04T09:33:46;2.00;;;0.70;;
3217;SDS011;1621;49.702;8.618;2024-02-04T09:36:12;2.00;;;0.80;;
3217;SDS011;1621;49.702;8.618;2024-02-04T09:38:39;1.93;;;0.67;;
3217;SDS011;1621;49.702;8.618;2024-02-04T09:41:06;2.10;;;0.80;;
3217;SDS011;1621;49.702;8.618;2024-02-04T09:43:32;2.13;;;0.87;;
3217;SDS011;1621;49.702;8.618;2024-02-04T09:46:00;2.00;;;0.70;;
3217;SDS011;1621;49.702;8.618;2024-02-04T09:48:26;2.10;;;0.80;;
3217;SDS011;1621;49.702;8.618;2024-02-04T09:50:57;2.50;;;0.90;;
3217;SDS011;1621;49.702;8.618;2024-02-04T09:53:26;1.90;;;0.70;;
3217;SDS011;1621;49.702;8.618;2024-02-04T09:55:54;2.10;;;0.80;;
3217;SDS011;1621;49.702;8.618;2024-02-04T09:58:21;2.00;;;0.70;;
3217;SDS011;1621;49.702;8.618;2024-02-04T10:00:48;2.17;;;0.70;;
3217;SDS011;1621;49.702;8.618;2024-02-04T10:03:17;2.00;;;0.70;;
3217;SDS011;1621;49.702;8.618;2024-02-04T10:05:43;1.90;;;0.60;;
3217;SDS011;1621;49.702;8.618;2024-02-04T10:08:11;2.53;;;0.70;;
3217;SDS011;1621;49.702;8.618;2024-02-04T10:10:41;2.10;;;0.80;;
3217;SDS011;1621;49.702;8.618;2024-02-04T10:13:08;2.07;;;0.70;;
3217;SDS011;1621;49.702;8.618;2024-02-04T10:15:36;2.00;;;0.70;;
3217;SDS011;1621;49.702;8.618;2024-02-04T10:18:03;2.00;;;0.70;;
3217;SDS011;1621;49.702;8.618;2024-02-04T10:20:31;2.10;;;0.70;;
3217;SDS011;1621;49.702;8.618;2024-02-04T10:22:58;1.90;;;0.60;;
3217;SDS011;1621;49.702;8.618;2024-02-04T10:25:26;2.00;;;0.70;;
3217;SDS011;1621;49.702;8.618;2024-02-04T10:27:53;2.30;;;0.70;;
3217;SDS011;1621;49.702;8.618;2024-02-04T10:30:19;2.20;;;0.80;;
3217;SDS011;1621;49.702;8.618;2024-02-04T10:32:47;2.17;;;0.70;;
3217;SDS011;1621;49.702;8.618;2024-02-04T10:35:13;2.43;;;0.80;;
3217;SDS011;1621;49.702;8.618;2024-02-04T10:37:39;3.17;;;0.80;;
3217;SDS011;1621;49.702;8.618;2024-02-04T10:40:07;2.00;;;0.70;;
3217;SDS011;1621;49.702;8.618;2024-02-04T10:42:36;2.10;;;0.80;;
3217;SDS011;1621;49.702;8.618;2024-02-04T10:45:04;1.90;;;0.60;;
3217;SDS011;1621;49.702;8.618;2024-02-04T10:47:32;2.30;;;0.80;;
3217;SDS011;1621;49.702;8.618;2024-02-04T10:49:58;2.83;;;0.87;;
3217;SDS011;1621;49.702;8.618;2024-02-04T10:52:26;2.00;;;0.60;;
3217;SDS011;1621;49.702;8.618;2024-02-04T10:54:53;2.00;;;0.70;;
3217;SDS011;1621;49.702;8.618;2024-02-04T10:57:20;2.30;;;0.70;;
3217;SDS011;1621;49.702;8.618;2024-02-04T10:59:48;2.03;;;0.70;;
3217;SDS011;1621;49.702;8.618;2024-02-04T11:02:14;2.20;;;0.70;;
3217;SDS011;1621;49.702;8.618;2024-02-04T11:04:41;1.80;;;0.60;;
3217;SDS011;1621;49.702;8.618;2024-02-04T11:07:08;2.00;;;0.70;;
3217;SDS011;1621;49.702;8.618;2024-02-04T11:09:34;2.33;;;0.70;;
3217;SDS011;1621;49.702;8.618;2024-02-04T11:12:01;2.43;;;0.83;;
3217;SDS011;1621;49.702;8.618;2024-02-04T11:14:29;2.00;;;0.70;;
3217;SDS011;1621;49.702;8.618;2024-02-04T11:17:04;1.93;;;0.70;;
3217;SDS011;1621;49.702;8.618;2024-02-04T11:19:37;2.13;;;0.80;;
3217;SDS011;1621;49.702;8.618;2024-02-04T11:22:18;1.97;;;0.70;;
3217;SDS011;1621;49.702;8.618;2024-02-04T11:24:53;2.10;;;0.80;;
3217;SDS011;1621;49.702;8.618;2024-02-04T11:27:21;2.30;;;0.70;;
3217;SDS011;1621;49.702;8.618;2024-02-04T11:29:48;2.10;;;0.70;;
3217;SDS011;1621;49.702;8.618;2024-02-04T11:32:16;2.20;;;0.90;;
3217;SDS011;1621;49.702;8.618;2024-02-04T11:34:43;2.10;;;0.80;;
3217;SDS011;1621;49.702;8.618;2024-02-04T11:37:16;2.07;;;0.80;;
3217;SDS011;1621;49.702;8.618;2024-02-04T11:39:50;2.43;;;0.73;;
3217;SDS011;1621;49.702;8.618;2024-02-04T11:42:17;2.23;;;0.90;;
3217;SDS011;1621;49.702;8.618;2024-02-04T11:44:43;2.50;;;0.90;;
3217;SDS011;1621;49.702;8.618;2024-02-04T11:47:10;2.33;;;1.00;;
3217;SDS011;1621;49.702;8.618;2024-02-04T11:49:38;2.30;;;0.90;;
3217;SDS011;1621;49.702;8.618;2024-02-04T11:52:05;2.83;;;0.83;;
3217;SDS011;1621;49.702;8.618;2024-02-04T11:54:31;2.13;;;0.87;;
3217;SDS011;1621;49.702;8.618;2024-02-04T11:56:58;2.40;;;1.10;;
3217;SDS011;1621;49.702;8.618;2024-02-04T11:59:27;3.40;;;1.00;;
3217;SDS011;1621;49.702;8.618;2024-02-04T12:01:54;2.10;;;0.90;;
3217;SDS011;1621;49.702;8.618;2024-02-04T12:04:20;2.63;;;1.00;;
3217;SDS011;1621;49.702;8.618;2024-02-04T12:06:49;2.40;;;1.10;;
3217;SDS011;1621;49.702;8.618;2024-02-04T12:09:16;3.13;;;1.20;;
3217;SDS011;1621;49.702;8.618;2024-02-04T12:11:43;5.03;;;1.20;;
3217;SDS011;1621;49.702;8.618;2024-02-04T12:14:09;2.50;;;1.20;;
3217;SDS011;1621;49.702;8.618;2024-02-04T12:16:36;2.70;;;1.20;;
3217;SDS011;1621;49.702;8.618;2024-02-04T12:19:02;6.40;;;1.10;;
3217;SDS011;1621;49.702;8.618;2024-02-04T12:21:29;2.37;;;1.10;;
3217;SDS011;1621;49.702;8.618;2024-02-04T12:23:57;2.20;;;0.93;;
3217;SDS011;1621;49.702;8.618;2024-02-04T12:26:23;2.30;;;0.90;;
3217;SDS011;1621;49.702;8.618;2024-02-04T12:28:50;2.50;;;1.30;;
3217;SDS011;1621;49.702;8.618;2024-02-04T12:31:16;2.20;;;0.90;;
3217;SDS011;1621;49.702;8.618;2024-02-04T12:33:49;2.93;;;1.00;;
3217;SDS011;1621;49.702;8.618;2024-02-04T12:36:16;2.27;;;0.93;;
3217;SDS011;1621;49.702;8.618;2024-02-04T12:38:42;3.00;;;1.30;;
3217;SDS011;1621;49.702;8.618;2024-02-04T12:41:17;4.30;;;1.20;;
3217;SDS011;1621;49.702;8.618;2024-02-04T12:43:47;2.40;;;1.10;;
3217;SDS011;1621;49.702;8.618;2024-02-04T12:46:13;2.27;;;1.00;;
3217;SDS011;1621;49.702;8.618;2024-02-04T12:48:39;2.17;;;0.97;;
3217;SDS011;1621;49.702;8.618;2024-02-04T12:51:06;2.20;;;0.90;;
3217;SDS011;1621;49.702;8.618;2024-02-04T12:53:32;2.30;;;1.00;;
3217;SDS011;1621;49.702;8.618;2024-02-04T12:55:58;2.40;;;1.00;;
3217;SDS011;1621;49.702;8.618;2024-02-04T12:58:26;2.50;;;1.10;;
3217;SDS011;1621;49.702;8.618;2024-02-04T13:00:59;2.30;;;1.10;;
3217;SDS011;1621;49.702;8.618;2024-02-04T13:03:25;2.33;;;1.03;;
3217;SDS011;1621;49.702;8.618;2024-02-04T13:05:56;2.40;;;1.00;;
3217;SDS011;1621;49.702;8.618;2024-02-04T13:08:23;2.50;;;1.10;;
3217;SDS011;1621;49.702;8.618;2024-02-04T13:10:53;2.87;;;1.00;;
3217;SDS011;1621;49.702;8.618;2024-02-04T13:13:19;2.30;;;1.00;;
3217;SDS011;1621;49.702;8.618;2024-02-04T13:15:47;2.30;;;0.90;;
3217;SDS011;1621;49.702;8.618;2024-02-04T13:18:13;2.30;;;0.90;;
3217;SDS011;1621;49.702;8.618;2024-02-04T13:20:40;3.93;;;1.20;;
3217;SDS011;1621;49.702;8.618;2024-02-04T13:23:06;3.37;;;1.47;;
3217;SDS011;1621;49.702;8.618;2024-02-04T13:25:33;3.43;;;1.10;;
3217;SDS011;1621;49.702;8.618;2024-02-04T13:27:59;2.47;;;0.80;;
3217;SDS011;1621;49.702;8.618;2024-02-04T13:30:26;2.60;;;1.03;;
3217;SDS011;1621;49.702;8.618;2024-02-04T13:32:53;2.30;;;1.10;;
3217;SDS011;1621;49.702;8.618;2024-02-04T13:35:19;4.90;;;1.10;;
3217;SDS011;1621;49.702;8.618;2024-02-04T13:37:46;2.90;;;1.27;;
3217;SDS011;1621;49.702;8.618;2024-02-04T13:40:16;3.17;;;1.20;;
3217;SDS011;1621;49.702;8.618;2024-02-04T13:42:42;2.53;;;1.00;;
3217;SDS011;1621;49.702;8.618;2024-02-04T13:45:09;2.83;;;1.10;;
3217;SDS011;1621;49.702;8.618;2024-02-04T13:47:35;2.40;;;0.90;;
3217;SDS011;1621;49.702;8.618;2024-02-04T13:50:03;2.23;;;0.87;;
3217;SDS011;1621;49.702;8.618;2024-02-04T13:52:30;2.40;;;1.10;;
3217;SDS011;1621;49.702;8.618;2024-02-04T13:54:56;2.40;;;0.93;;
3217;SDS011;1621;49.702;8.618;2024-02-04T13:57:22;2.13;;;0.90;;
3217;SDS011;1621;49.702;8.618;2024-02-04T13:59:48;7.77;;;1.80;;
3217;SDS011;1621;49.702;8.618;2024-02-04T14:02:15;7.70;;;1.70;;
3217;SDS011;1621;49.702;8.618;2024-02-04T14:04:41;4.80;;;1.67;;
3217;SDS011;1621;49.702;8.618;2024-02-04T14:07:09;3.33;;;1.30;;
3217;SDS011;1621;49.702;8.618;2024-02-04T14:09:35;3.77;;;1.30;;
3217;SDS011;1621;49.702;8.618;2024-02-04T14:12:01;2.80;;;1.10;;
3217;SDS011;1621;49.702;8.618;2024-02-04T14:14:28;3.83;;;1.27;;
3217;SDS011;1621;49.702;8.618;2024-02-04T14:16:54;5.13;;;1.27;;
3217;SDS011;1621;49.702;8.618;2024-02-04T14:19:21;2.70;;;1.20;;
3217;SDS011;1621;49.702;8.618;2024-02-04T14:21:47;3.13;;;1.00;;
3217;SDS011;1621;49.702;8.618;2024-02-04T14:24:15;2.47;;;1.27;;
3217;SDS011;1621;49.702;8.618;2024-02-04T14:26:41;2.60;;;1.00;;
3217;SDS011;1621;49.702;8.618;2024-02-04T14:29:08;3.07;;;1.33;;
3217;SDS011;1621;49.702;8.618;2024-02-04T14:31:35;2.50;;;1.17;;
3217;SDS011;1621;49.702;8.618;2024-02-04T14:34:01;2.70;;;1.00;;
3217;SDS011;1621;49.702;8.618;2024-02-04T14:36:27;2.60;;;1.27;;
3217;SDS011;1621;49.702;8.618;2024-02-04T14:38:53;4.93;;;1.10;;
3217;SDS011;1621;49.702;8.618;2024-02-04T14:41:21;2.70;;;1.00;;
3217;SDS011;1621;49.702;8.618;2024-02-04T14:43:47;2.17;;;1.00;;
3217;SDS011;1621;49.702;8.618;2024-02-04T14:46:14;2.53;;;1.20;;
3217;SDS011;1621;49.702;8.618;2024-02-04T14:48:40;3.03;;;1.30;;
3217;SDS011;1621;49.702;8.618;2024-02-04T14:51:06;2.40;;;1.10;;
3217;SDS011;1621;49.702;8.618;2024-02-04T14:53:32;2.40;;;1.20;;
3217;SDS011;1621;49.702;8.618;2024-02-04T14:55:59;2.87;;;1.20;;
3217;SDS011;1621;49.702;8.618;2024-02-04T14:58:26;2.80;;;1.30;;
3217;SDS011;1621;49.702;8.618;2024-02-04T15:00:53;2.50;;;1.23;;
3217;SDS011;1621;49.702;8.618;2024-02-04T15:03:19;4.73;;;1.60;;
3217;SDS011;1621;49.702;8.618;2024-02-04T15:05:45;2.80;;;1.30;;
3217;SDS011;1621;49.702;8.618;2024-02-04T15:08:12;3.53;;;1.57;;
3217;SDS011;1621;49.702;8.618;2024-02-04T15:10:38;2.97;;;1.60;;
3217;SDS011;1621;49.702;8.618;2024-02-04T15:13:04;9.53;;;2.17;;